Timeline UpdatesTrip UpdatesNews PostsPvt PostsTravel TipsAdmin PostsConv PostsFollowed PostsChat RequestsBlog PostsPNR Posts

Disclaimer
Search
 
 
Tue Sep 23, 2014 19:55:17 ISTHomeTrainsΣChainsAtlasPNRForumGalleryNewsFAQTripsMembersLoginFeedback
No Recent News for this Train
Other Trains in the News **new
Latest...
.
Tue Sep 17, 2013 (05:07PM)
⇐ Return Journey: Train# 37927

37926/Katwa-Howrah Local

Time-Table HAS CHANGED.
Sep 05 (7:58AM)
Change Departure Station:
Change Arrival Station:
Post a Train Travel TipPost a Train Travel Tip **new
Post a Comment/Question/Picture/VideoPost a Comment/Question/Picture/Video
Pantry/Catering
✕ NO Pantry Car
✕ NO Catering
RSA - Rake Sharing
Rake/Coach Composition
Loco
News    PNR    Forum    Time-Table    Availability    Fare Chart    Map    Arr/Dep History    Trips    Gallery    ΣChains    X/O    Timeline    
Travel Time: 1h 3m    14 halts    Distance: 37 km    Avg Speed: 35 km/hr
Type: EMU - Kolkata
Zone: ER/Eastern
Departs @ 17:45
Platform# ???
SMTWTFS
Hooghly/HGY 
Arrives @ 18:48 (Avg 17m late)
Platform# ???
SMTWTFS
Kolkata Howrah Junction/HWH 

14 halts. 16 intermediate Stations between Hooghly and Kolkata Howrah Junction

Show ALL intermediate Stations  Show Old Time-Table

#CodeStation NameX/OArrivesAvgDepartsAvgHaltPFDay#KmSpeedElevZoneAddress
1KWAEKatwa Junction (5)  -15:00+8--1-106.95921mERDist - Bardhaman, West Bengal
2DHAEDainhat (4)  15:06 15:07+1315:07 15:08+211m--1-100.0-19mERDaihaat Rd, West Bengal
3SHBASahebtala  15:09-15:10-1m--1-96.64118mERSahebtala, West Bengal
4AGAEAgradwip (2)  15:19 15:14+1715:20 15:15+321m--1-93.99718mERDist - Bardhaman, West Bengal
5PTAEPatuli (2)  15:23 15:18+3015:24 15:19+341m--1-89.010118mERDist - bardhaman, West Bengal
6BQYBelerhat  15:28 15:22-15:29 15:23-1m--1-84.08219mERJajneswarpur, West Bengal
7LKXLakshmipur (2)  15:31 15:25+2915:32 15:26+331m--1-81.39414mERDist - burdhaman, West Bengal
8MTFAMertala Phaleya  15:34 15:28-15:35 15:29-1m--1-78.19016mERMertala Phaleya, West Bengal
9PSAEPurbasthali (2)  15:37 15:31+2415:38 15:32+241m--1-75.17119mERDist - Bardhaman, West Bengal
10BFZBhandartikuri  15:40 15:34+2415:41 15:35+241m--1-72.84521mERDist - Bardhaman, West Bengal
11NDAENabadwip Dham (3)  15:48 15:42+1715:50 15:43+182 1m--1-67.512915mERDist - Nadia, West Bengal
12KLNTKalinagar (1)  16:00 15:45+1916:01 15:46+281m11-63.2379mERDist - Nadia, West Bengal
13SMAESamudra Garh  16:04 15:52+2916:05 15:53+331m--1-59.52916mERDist - Bardhaman, West Bengal
14DTAEDhatrigram (4)  16:28 16:07+2016:29 16:08+211m--1-52.83116mERDhatrigram, West Bengal
15BGRABaghnapara (2)  16:32 16:17+2316:33 16:18+231m--1-48.23416mERKalna-Memari Rd, West Bengal
16ABKAAmbika Kalna (4)  16:38 16:25+1616:39 16:26+161m--1-44.28612mERKalna, West Bengal
17GPAEGuptipara  16:44 16:31+2616:45 16:32+261m--1-37.16814mERGuptipara Railway Station, West Bengal
18BHLABehula  16:47 16:34-16:48 16:35-1m--1-34.87216mERDist - Hooghly, West Bengal
19SOAESomra Bazar (2)  16:52 16:39-16:53 16:40-1m--1-30.05613mERState Highway 6, West Bengal
20BGAEBalagarh  16:55 16:43-16:56 16:44-1m--1-27.29913mERBalagarh, West Bengal
21JITJirat (3)  17:03 16:46+2417:04 16:47+241m--1-23.97815mERdist - hooghly, West Bengal
22KMAEKhamargachhi  17:07 16:51+2717:08 16:52+271m--1-18.712014mERKhamargachi, West Bengal
23DMLEDumurdaha  17:10 16:53-17:11 16:54-1m--1-16.79815mERDumurdahadham, West Bengal
24KJUKuntighat  17:13 16:56-17:14 16:57-1m--1-13.46717mERKuntighat Railway Station, West Bengal
25TBAETribeni  17:17 17:00+3217:18 17:01+321m--1-10.17416mERTribeni, West Bengal
26BSAEBansh Baria  17:21 17:04+3017:22 17:05+301m--1-6.4713mERBansberia, West Bengal
27BDCBandel Junction (7)  17:41+1217:43+132m--1-1.911714mERdist - HOOGHLY, West Bengal
28HGYHooghly (3)»  17:44-17:45-1m--10.05414mERDist - Hooghly, West Bengal
29CNSChuchura (3)  17:47-17:48-1m--11.89015mERDist - HOOGHLY - 712102, West Bengal
30CGRChandan Nagar (3)  17:50+1917:51+191m--14.87116mERDist -HOOGHLY - 712136, West Bengal
31MUUMankundu (3)  17:53-17:54-1m--17.26713mERChandannagar, West Bengal
32BHRBhadreshwar (3)  17:55 17:56+2917:56 17:57+291m--19.411214mERBhadreswar, West Bengal
33BBAEBaidyabati (3)  18:00 17:59-18:01 18:00-1m--113.12313mERBaidyabati, West Bengal
34SHESeoraphuli Junction (6)  18:06+2418:07+241m--115.57613mERBaidyabati, West Bengal
35SRPSerampore (4)  18:09+2918:10+291m--118.06411mERdist - hooghly, West Bengal
36RISRishra (3)  18:13-18:14-1m--121.23511mERRishra, West Bengal
37KOGKonnagar (3)  18:18 18:19+2518:19 18:20+251m--124.110910mERDist: Howrah, West Bengal
38HMZHind Motor (3)  18:20 18:21-18:21 18:22-1m--125.9549mERHindmotor, West Bengal
39UPAUttarpara (3)  18:23 18:24+018:24 18:25+01m--127.7819mERDist - Hooghly, West Bengal
40BLYBally (6)  18:25 18:26+018:26 18:27+01m--129.1618mERDist - Howrah, West Bengal
41BEQBelur (5)  18:27 18:29+3118:28 18:30+311m--131.1338mERHowrah, West Bengal
42LLHLiluah (5)  18:30 18:33+3118:31 18:34+311m--132.81910mERHowrah, West Bengal
43HWHKolkata Howrah Junction (23)•  18:48+17---137.3-10mERHowrah 711101, West Bengal
Scroll to Top
Scroll to Bottom